createdAt,value
2016-07-16T00:00:05.936Z,0
2016-07-16T00:01:05.914Z,0
2016-07-16T00:02:05.892Z,0
2016-07-16T00:03:05.876Z,0
2016-07-16T00:04:05.857Z,0
2016-07-16T00:05:05.832Z,0
2016-07-16T00:06:05.817Z,0
2016-07-16T00:07:05.796Z,0
2016-07-16T00:08:05.775Z,0
2016-07-16T00:09:05.761Z,0
2016-07-16T00:10:05.732Z,0
2016-07-16T00:11:05.718Z,0
2016-07-16T00:12:05.706Z,0
2016-07-16T00:13:05.678Z,0
2016-07-16T00:14:05.657Z,0
2016-07-16T00:15:05.644Z,0
2016-07-16T00:16:05.612Z,0
2016-07-16T00:17:05.603Z,0
2016-07-16T00:18:05.576Z,0
2016-07-16T00:19:05.557Z,0
2016-07-16T00:20:05.533Z,0
2016-07-16T00:21:05.521Z,0
2016-07-16T00:22:05.493Z,0
2016-07-16T00:23:05.489Z,0
2016-07-16T00:24:05.457Z,0
2016-07-16T00:25:05.434Z,0
2016-07-16T00:26:05.429Z,0
2016-07-16T00:27:05.399Z,0
2016-07-16T00:28:06.071Z,0
2016-07-16T00:29:05.356Z,0
2016-07-16T00:30:05.336Z,0
2016-07-16T00:31:05.313Z,0
2016-07-16T00:32:05.297Z,0
2016-07-16T00:33:05.277Z,0
2016-07-16T00:34:05.251Z,0
2016-07-16T00:35:05.236Z,0
2016-07-16T00:36:05.222Z,0
2016-07-16T00:37:05.192Z,0
2016-07-16T00:38:05.176Z,0
2016-07-16T00:39:05.152Z,0
2016-07-16T00:40:05.137Z,0
2016-07-16T00:41:05.117Z,0
2016-07-16T00:42:05.091Z,0
2016-07-16T00:43:05.075Z,0
2016-07-16T00:44:05.055Z,0
2016-07-16T00:45:05.034Z,0
2016-07-16T00:46:05.015Z,0
2016-07-16T00:47:04.991Z,0
2016-07-16T00:48:04.975Z,0
2016-07-16T00:49:04.952Z,0
2016-07-16T00:50:04.934Z,0
2016-07-16T00:51:04.917Z,0
2016-07-16T00:52:04.891Z,0
2016-07-16T00:53:04.875Z,0
2016-07-16T00:54:04.854Z,0
2016-07-16T00:55:04.831Z,0
2016-07-16T00:56:04.815Z,0
2016-07-16T00:57:04.797Z,0
2016-07-16T00:58:04.772Z,0
2016-07-16T00:59:04.756Z,0
2016-07-16T01:00:04.737Z,0
2016-07-16T01:01:04.715Z,0
2016-07-16T01:02:04.698Z,0
2016-07-16T01:03:04.671Z,0
2016-07-16T01:04:04.662Z,0
2016-07-16T01:05:04.635Z,0
2016-07-16T01:06:04.615Z,0
2016-07-16T01:07:04.600Z,0
2016-07-16T01:08:04.572Z,0
2016-07-16T01:09:04.556Z,0
2016-07-16T01:10:04.534Z,0
2016-07-16T01:11:04.515Z,0
2016-07-16T01:12:04.497Z,0
2016-07-16T01:13:04.472Z,0
2016-07-16T01:14:04.454Z,0
2016-07-16T01:15:04.435Z,0
2016-07-16T01:16:04.416Z,0
2016-07-16T01:17:04.403Z,0
2016-07-16T01:18:04.371Z,0
2016-07-16T01:19:04.356Z,0
2016-07-16T01:20:04.336Z,0
2016-07-16T01:21:04.315Z,0
2016-07-16T01:22:04.291Z,0
2016-07-16T01:23:04.270Z,0
2016-07-16T01:24:04.256Z,0
2016-07-16T01:25:04.232Z,0
2016-07-16T01:26:04.215Z,0
2016-07-16T01:27:04.191Z,0
2016-07-16T01:28:04.170Z,0
2016-07-16T01:29:04.153Z,0
2016-07-16T01:30:04.133Z,0
2016-07-16T01:31:04.113Z,0
2016-07-16T01:32:04.093Z,0
2016-07-16T01:33:04.069Z,0
2016-07-16T01:34:04.053Z,0
2016-07-16T01:35:04.034Z,0
2016-07-16T01:36:04.008Z,0
2016-07-16T01:37:03.996Z,0
2016-07-16T01:38:03.967Z,0
2016-07-16T01:39:03.958Z,0
2016-07-16T01:40:03.936Z,0
2016-07-16T01:41:03.916Z,0
2016-07-16T01:42:03.908Z,0
2016-07-16T01:43:03.868Z,0
2016-07-16T01:44:03.855Z,0
2016-07-16T01:45:03.838Z,0
2016-07-16T01:46:03.816Z,0
2016-07-16T01:47:03.793Z,0
2016-07-16T01:48:03.770Z,0
2016-07-16T01:49:03.755Z,0
2016-07-16T01:50:03.736Z,0
2016-07-16T01:51:03.712Z,0
2016-07-16T01:52:03.695Z,0
2016-07-16T01:53:03.671Z,0
2016-07-16T01:54:03.654Z,0
2016-07-16T01:55:03.635Z,0
2016-07-16T01:56:03.617Z,0
2016-07-16T01:57:03.593Z,0
2016-07-16T01:58:03.574Z,0
2016-07-16T01:59:03.556Z,0
2016-07-16T02:00:03.535Z,0
2016-07-16T02:01:03.515Z,0
2016-07-16T02:02:03.495Z,0
2016-07-16T02:03:03.471Z,0
2016-07-16T02:04:03.459Z,0
2016-07-16T02:05:03.436Z,0
2016-07-16T02:06:03.409Z,0
2016-07-16T02:07:03.394Z,0
2016-07-16T02:08:03.377Z,0
2016-07-16T02:09:03.357Z,0
2016-07-16T02:10:03.333Z,0
2016-07-16T02:11:03.312Z,0
2016-07-16T02:12:03.289Z,0
2016-07-16T02:13:03.274Z,0
2016-07-16T02:14:03.264Z,0
2016-07-16T02:15:03.230Z,0
2016-07-16T02:16:03.211Z,0
2016-07-16T02:17:03.193Z,0
2016-07-16T02:18:03.168Z,0
2016-07-16T02:19:03.163Z,0
2016-07-16T02:20:03.824Z,0
2016-07-16T02:21:03.108Z,0
2016-07-16T02:22:03.094Z,0
2016-07-16T02:23:03.072Z,0
2016-07-16T02:24:03.052Z,0
2016-07-16T02:25:03.035Z,0
2016-07-16T02:26:03.023Z,0
2016-07-16T02:27:02.992Z,0
2016-07-16T02:28:02.973Z,0
2016-07-16T02:29:02.948Z,0
2016-07-16T02:30:02.934Z,0
2016-07-16T02:31:02.921Z,0
2016-07-16T02:32:02.891Z,0
2016-07-16T02:33:02.873Z,0
2016-07-16T02:34:02.850Z,0
2016-07-16T02:35:02.826Z,0
2016-07-16T02:36:02.812Z,0
2016-07-16T02:37:02.788Z,0
2016-07-16T02:38:02.771Z,0
2016-07-16T02:39:02.751Z,0
2016-07-16T02:40:02.728Z,0
2016-07-16T02:41:02.720Z,0
2016-07-16T02:42:02.689Z,0
2016-07-16T02:43:02.669Z,0
2016-07-16T02:44:02.652Z,0
2016-07-16T02:45:02.626Z,0
2016-07-16T02:46:02.612Z,0
2016-07-16T02:47:02.603Z,0
2016-07-16T02:48:02.570Z,0
2016-07-16T02:49:02.549Z,0
2016-07-16T02:50:02.526Z,0
2016-07-16T02:51:02.509Z,0
2016-07-16T02:52:03.182Z,0
2016-07-16T02:53:02.467Z,0
2016-07-16T02:54:02.451Z,0
2016-07-16T02:55:02.427Z,0
2016-07-16T02:56:02.405Z,0
2016-07-16T02:57:03.081Z,0
2016-07-16T02:58:02.367Z,0
2016-07-16T02:59:02.358Z,0
2016-07-16T03:00:02.335Z,0
2016-07-16T03:01:02.309Z,0
2016-07-16T03:02:02.288Z,0
2016-07-16T03:03:02.265Z,0
2016-07-16T03:04:02.249Z,0
2016-07-16T03:05:02.223Z,0
2016-07-16T03:06:02.210Z,0
2016-07-16T03:07:02.194Z,0
2016-07-16T03:08:02.164Z,0
2016-07-16T03:09:02.162Z,0
2016-07-16T03:10:02.125Z,0
2016-07-16T03:11:02.108Z,0
2016-07-16T03:12:02.085Z,0
2016-07-16T03:13:02.075Z,0
2016-07-16T03:14:02.049Z,0
2016-07-16T03:15:02.029Z,0
2016-07-16T03:16:02.009Z,0
2016-07-16T03:17:01.989Z,0
2016-07-16T03:18:01.966Z,0
2016-07-16T03:19:01.947Z,0
2016-07-16T03:20:01.925Z,0
2016-07-16T03:21:01.909Z,0
2016-07-16T03:22:01.888Z,0
2016-07-16T03:23:01.867Z,0
2016-07-16T03:24:01.852Z,5
2016-07-16T03:25:01.824Z,5
2016-07-16T03:26:02.498Z,5
2016-07-16T03:27:01.786Z,5
2016-07-16T03:28:01.763Z,5
2016-07-16T03:29:01.752Z,5
2016-07-16T03:30:01.726Z,5
2016-07-16T03:31:01.704Z,5
2016-07-16T03:32:01.699Z,5
2016-07-16T03:33:01.667Z,10
2016-07-16T03:34:01.648Z,10
2016-07-16T03:35:01.638Z,10
2016-07-16T03:36:02.297Z,10
2016-07-16T03:37:01.591Z,10
2016-07-16T03:38:01.565Z,15
2016-07-16T03:39:01.547Z,15
2016-07-16T03:40:01.530Z,15
2016-07-16T03:41:01.507Z,15
2016-07-16T03:42:01.487Z,20
2016-07-16T03:43:01.468Z,20
2016-07-16T03:44:01.445Z,20
2016-07-16T03:45:01.431Z,25
2016-07-16T03:46:01.407Z,25
2016-07-16T03:47:01.391Z,25
2016-07-16T03:48:01.367Z,25
2016-07-16T03:49:01.349Z,25
2016-07-16T03:50:01.328Z,30
2016-07-16T03:51:01.306Z,30
2016-07-16T03:52:01.293Z,35
2016-07-16T03:53:01.268Z,35
2016-07-16T03:54:01.253Z,40
2016-07-16T03:55:01.231Z,45
2016-07-16T03:56:01.210Z,50
2016-07-16T03:57:01.198Z,50
2016-07-16T03:58:01.171Z,55
2016-07-16T03:59:01.148Z,60
2016-07-16T04:00:01.130Z,65
2016-07-16T04:01:01.106Z,70
2016-07-16T04:02:01.098Z,70
2016-07-16T04:03:01.080Z,75
2016-07-16T04:04:01.047Z,75
2016-07-16T04:05:01.028Z,75
2016-07-16T04:06:01.014Z,75
2016-07-16T04:07:00.997Z,80
2016-07-16T04:08:00.973Z,80
2016-07-16T04:09:00.954Z,80
2016-07-16T04:10:00.951Z,85
2016-07-16T04:11:00.916Z,85
2016-07-16T04:12:00.892Z,85
2016-07-16T04:13:00.875Z,90
2016-07-16T04:14:00.858Z,90
2016-07-16T04:15:00.833Z,90
2016-07-16T04:16:00.819Z,100
2016-07-16T04:17:00.802Z,110
2016-07-16T04:18:00.774Z,120
2016-07-16T04:19:00.759Z,125
2016-07-16T04:20:00.737Z,130
2016-07-16T04:21:00.715Z,135
2016-07-16T04:22:00.712Z,140
2016-07-16T04:23:00.675Z,140
2016-07-16T04:24:00.661Z,140
2016-07-16T04:25:00.641Z,140
2016-07-16T04:26:00.625Z,140
2016-07-16T04:27:00.603Z,135
2016-07-16T04:28:00.584Z,130
2016-07-16T04:29:00.565Z,125
2016-07-16T04:30:00.544Z,125
2016-07-16T04:31:00.525Z,120
2016-07-16T04:32:00.505Z,120
2016-07-16T04:33:00.489Z,120
2016-07-16T04:34:00.470Z,115
2016-07-16T04:35:00.447Z,115
2016-07-16T04:36:00.426Z,110
2016-07-16T04:37:00.418Z,110
2016-07-16T04:38:00.391Z,110
2016-07-16T04:39:00.367Z,110
2016-07-16T04:40:00.355Z,105
2016-07-16T04:41:00.331Z,105
2016-07-16T04:42:00.308Z,110
2016-07-16T04:43:00.300Z,110
2016-07-16T04:44:00.278Z,115
2016-07-16T04:45:00.255Z,115
2016-07-16T04:46:00.232Z,115
2016-07-16T04:47:00.212Z,115
2016-07-16T04:48:00.198Z,115
2016-07-16T04:49:00.180Z,115
2016-07-16T04:50:00.156Z,115
2016-07-16T04:51:00.141Z,115
2016-07-16T04:52:00.811Z,115
2016-07-16T04:53:00.099Z,115
2016-07-16T04:54:00.093Z,110
2016-07-16T04:55:00.067Z,100
2016-07-16T04:56:00.049Z,100
2016-07-16T04:57:00.024Z,95
2016-07-16T04:58:00.003Z,95
2016-07-16T04:58:59.988Z,95
2016-07-16T04:59:59.967Z,100
2016-07-16T05:00:59.946Z,100
2016-07-16T05:01:59.928Z,105
2016-07-16T05:02:59.908Z,105
2016-07-16T05:03:59.891Z,110
2016-07-16T05:04:59.869Z,110
2016-07-16T05:05:59.853Z,110
2016-07-16T05:06:59.837Z,110
2016-07-16T05:07:59.814Z,115
2016-07-16T05:08:59.793Z,115
2016-07-16T05:09:59.774Z,110
2016-07-16T05:10:59.752Z,105
2016-07-16T05:11:59.737Z,105
2016-07-16T05:12:59.716Z,105
2016-07-16T05:13:59.700Z,105
2016-07-16T05:14:59.677Z,105
2016-07-16T05:15:59.669Z,110
2016-07-16T05:16:59.641Z,110
2016-07-16T05:17:59.619Z,115
2016-07-16T05:18:59.613Z,120
2016-07-16T05:19:59.583Z,130
2016-07-16T05:20:59.563Z,135
2016-07-16T05:21:59.546Z,135
2016-07-16T05:22:59.530Z,140
2016-07-16T05:23:59.506Z,140
2016-07-16T05:24:59.490Z,145
2016-07-16T05:25:59.468Z,145
2016-07-16T05:26:59.447Z,145
2016-07-16T05:27:59.434Z,145
2016-07-16T05:28:59.423Z,150
2016-07-16T05:29:59.410Z,155
2016-07-16T05:30:59.377Z,165
2016-07-16T05:31:59.356Z,170
2016-07-16T05:32:59.345Z,180
2016-07-16T05:33:59.321Z,190
2016-07-16T05:34:59.301Z,195
2016-07-16T05:35:59.284Z,200
2016-07-16T05:36:59.260Z,215
2016-07-16T05:37:59.251Z,225
2016-07-16T05:38:59.231Z,235
2016-07-16T05:39:59.204Z,245
2016-07-16T05:40:59.198Z,255
2016-07-16T05:41:59.170Z,255
2016-07-16T05:42:59.149Z,255
2016-07-16T05:43:59.135Z,250
2016-07-16T05:44:59.112Z,245
2016-07-16T05:45:59.096Z,240
2016-07-16T05:46:59.081Z,235
2016-07-16T05:47:59.055Z,230
2016-07-16T05:48:59.045Z,225
2016-07-16T05:49:59.021Z,220
2016-07-16T05:50:59.004Z,215
2016-07-16T05:51:58.986Z,215
2016-07-16T05:52:58.967Z,215
2016-07-16T05:53:58.948Z,215
2016-07-16T05:54:58.931Z,220
2016-07-16T05:55:58.910Z,215
2016-07-16T05:56:58.892Z,215
2016-07-16T05:57:58.880Z,210
2016-07-16T05:58:58.862Z,200
2016-07-16T05:59:58.840Z,195
2016-07-16T06:00:58.815Z,185
2016-07-16T06:01:58.800Z,175
2016-07-16T06:02:58.784Z,165
2016-07-16T06:03:58.758Z,160
2016-07-16T06:04:58.744Z,160
2016-07-16T06:05:58.724Z,155
2016-07-16T06:06:58.702Z,160
2016-07-16T06:07:58.691Z,175
2016-07-16T06:08:58.664Z,200
2016-07-16T06:09:58.650Z,220
2016-07-16T06:10:59.322Z,250
2016-07-16T06:11:58.610Z,275
2016-07-16T06:12:58.594Z,295
2016-07-16T06:13:58.571Z,305
2016-07-16T06:14:58.552Z,315
2016-07-16T06:15:58.539Z,320
2016-07-16T06:16:58.514Z,310
2016-07-16T06:17:58.497Z,290
2016-07-16T06:18:59.175Z,275
2016-07-16T06:19:59.156Z,265
2016-07-16T06:20:58.447Z,270
2016-07-16T06:21:58.423Z,280
2016-07-16T06:22:58.420Z,290
2016-07-16T06:23:58.394Z,300
2016-07-16T06:24:58.373Z,300
2016-07-16T06:25:58.356Z,300
2016-07-16T06:26:58.331Z,295
2016-07-16T06:27:58.321Z,300
2016-07-16T06:28:58.299Z,305
2016-07-16T06:29:58.276Z,335
2016-07-16T06:30:58.262Z,385
2016-07-16T06:31:58.244Z,445
2016-07-16T06:32:58.224Z,510
2016-07-16T06:33:58.213Z,570
2016-07-16T06:34:58.183Z,600
2016-07-16T06:35:58.168Z,625
2016-07-16T06:36:58.151Z,630
2016-07-16T06:37:58.136Z,610
2016-07-16T06:38:58.119Z,565
2016-07-16T06:39:58.099Z,530
2016-07-16T06:40:58.081Z,525
2016-07-16T06:41:58.062Z,545
2016-07-16T06:42:58.047Z,560
2016-07-16T06:43:58.023Z,575
2016-07-16T06:44:58.011Z,580
2016-07-16T06:45:57.996Z,570
2016-07-16T06:46:57.977Z,560
2016-07-16T06:47:57.960Z,570
2016-07-16T06:48:57.949Z,575
2016-07-16T06:49:57.918Z,580
2016-07-16T06:50:57.907Z,570
2016-07-16T06:51:57.891Z,535
2016-07-16T06:52:57.879Z,500
2016-07-16T06:53:57.850Z,485
2016-07-16T06:54:57.840Z,480
2016-07-16T06:55:57.831Z,500
2016-07-16T06:56:57.801Z,540
2016-07-16T06:57:57.787Z,575
2016-07-16T06:58:57.770Z,615
2016-07-16T06:59:57.756Z,670
2016-07-16T07:00:57.746Z,720
2016-07-16T07:01:57.720Z,750
2016-07-16T07:02:57.698Z,770
2016-07-16T07:03:57.695Z,795
2016-07-16T07:04:57.670Z,840
2016-07-16T07:05:57.650Z,910
2016-07-16T07:06:57.634Z,945
2016-07-16T07:07:58.316Z,895
2016-07-16T07:08:57.602Z,755
2016-07-16T07:09:57.585Z,645
2016-07-16T07:10:57.588Z,585
2016-07-16T07:11:57.560Z,575
2016-07-16T07:12:57.537Z,580
2016-07-16T07:13:57.527Z,585
2016-07-16T07:14:58.215Z,595
2016-07-16T07:15:57.489Z,625
2016-07-16T07:16:57.482Z,660
2016-07-16T07:17:57.463Z,695
2016-07-16T07:18:57.444Z,705
2016-07-16T07:19:57.427Z,675
2016-07-16T07:20:57.411Z,620
2016-07-16T07:21:57.400Z,575
2016-07-16T07:22:57.382Z,555
2016-07-16T07:23:57.365Z,570
2016-07-16T07:24:57.345Z,595
2016-07-16T07:25:57.347Z,615
2016-07-16T07:26:57.325Z,620
2016-07-16T07:27:57.299Z,615
2016-07-16T07:28:57.289Z,615
2016-07-16T07:29:57.267Z,630
2016-07-16T07:30:57.253Z,675
2016-07-16T07:31:57.931Z,730
2016-07-16T07:32:57.220Z,765
2016-07-16T07:33:57.208Z,755
2016-07-16T07:34:57.190Z,750
2016-07-16T07:35:57.171Z,710
2016-07-16T07:36:57.167Z,670
2016-07-16T07:37:57.193Z,665
2016-07-16T07:38:57.123Z,700
2016-07-16T07:39:57.109Z,735
2016-07-16T07:40:57.093Z,745
2016-07-16T07:41:57.076Z,755
2016-07-16T07:42:57.074Z,755
2016-07-16T07:43:57.051Z,760
2016-07-16T07:44:57.031Z,765
2016-07-16T07:45:57.015Z,760
2016-07-16T07:46:57.001Z,765
2016-07-16T07:47:56.981Z,760
2016-07-16T07:48:56.967Z,720
2016-07-16T07:49:56.953Z,680
2016-07-16T07:50:57.630Z,670
2016-07-16T07:51:56.922Z,670
2016-07-16T07:52:56.912Z,675
2016-07-16T07:53:56.886Z,675
2016-07-16T07:54:56.876Z,680
2016-07-16T07:55:56.856Z,690
2016-07-16T07:56:56.855Z,690
2016-07-16T07:57:56.830Z,680
2016-07-16T07:58:56.808Z,680
2016-07-16T07:59:56.796Z,690
2016-07-16T08:00:56.785Z,710
2016-07-16T08:01:56.758Z,720
2016-07-16T08:02:57.463Z,720
2016-07-16T08:03:56.755Z,715
2016-07-16T08:04:56.715Z,720
2016-07-16T08:05:56.700Z,735
2016-07-16T08:06:56.681Z,755
2016-07-16T08:07:56.669Z,770
2016-07-16T08:08:56.653Z,775
2016-07-16T08:09:56.634Z,760
2016-07-16T08:10:56.623Z,750
2016-07-16T08:11:56.609Z,755
2016-07-16T08:12:56.588Z,785
2016-07-16T08:13:56.576Z,850
2016-07-16T08:14:56.558Z,920
2016-07-16T08:15:56.540Z,965
2016-07-16T08:16:56.526Z,975
2016-07-16T08:17:56.514Z,965
2016-07-16T08:18:56.494Z,965
2016-07-16T08:19:56.481Z,965
2016-07-16T08:20:56.468Z,955
2016-07-16T08:21:56.452Z,940
2016-07-16T08:22:56.434Z,930
2016-07-16T08:23:56.417Z,940
2016-07-16T08:24:56.417Z,960
2016-07-16T08:25:56.389Z,980
2016-07-16T08:26:56.372Z,1000
2016-07-16T08:27:56.372Z,1010
2016-07-16T08:28:56.344Z,1000
2016-07-16T08:29:56.329Z,990
2016-07-16T08:30:56.319Z,1000
2016-07-16T08:31:56.296Z,1015
2016-07-16T08:32:56.284Z,1030
2016-07-16T08:33:56.280Z,1045
2016-07-16T08:34:56.258Z,1070
2016-07-16T08:35:56.241Z,1120
2016-07-16T08:36:56.228Z,1165
2016-07-16T08:37:56.223Z,1155
2016-07-16T08:38:56.197Z,1135
2016-07-16T08:39:56.187Z,1130
2016-07-16T08:40:56.171Z,1150
2016-07-16T08:41:56.856Z,1160
2016-07-16T08:42:56.141Z,1150
2016-07-16T08:43:56.131Z,1140
2016-07-16T08:44:56.120Z,1120
2016-07-16T08:45:56.100Z,1085
2016-07-16T08:46:56.087Z,1060
2016-07-16T08:47:56.075Z,1060
2016-07-16T08:48:56.064Z,1110
2016-07-16T08:49:56.044Z,1200
2016-07-16T08:50:56.027Z,1295
2016-07-16T08:51:56.911Z,1340
2016-07-16T08:52:56.004Z,1370
2016-07-16T08:53:55.985Z,1370
2016-07-16T08:54:55.978Z,1370
2016-07-16T08:55:55.963Z,1385
2016-07-16T08:56:55.947Z,1400
2016-07-16T08:57:55.937Z,1355
2016-07-16T08:58:55.928Z,1300
2016-07-16T08:59:55.904Z,1300
2016-07-16T09:00:55.900Z,1445
2016-07-16T09:01:55.883Z,1650
2016-07-16T09:02:55.866Z,1770
2016-07-16T09:03:55.856Z,1705
2016-07-16T09:04:55.845Z,1535
2016-07-16T09:05:55.832Z,1490
2016-07-16T09:06:55.829Z,1565
2016-07-16T09:07:55.808Z,1595
2016-07-16T09:08:55.792Z,1655
2016-07-16T09:09:55.779Z,1670
2016-07-16T09:10:55.775Z,1665
2016-07-16T09:11:55.755Z,1650
2016-07-16T09:12:55.747Z,1605
2016-07-16T09:13:55.732Z,1540
2016-07-16T09:14:55.724Z,1425
2016-07-16T09:15:55.707Z,1325
2016-07-16T09:16:55.697Z,1385
2016-07-16T09:17:55.683Z,1545
2016-07-16T09:18:55.674Z,1585
2016-07-16T09:19:55.664Z,1565
2016-07-16T09:20:55.648Z,1630
2016-07-16T09:21:55.640Z,1610
2016-07-16T09:22:55.636Z,1530
2016-07-16T09:23:55.614Z,1490
2016-07-16T09:24:55.599Z,1435
2016-07-16T09:25:56.285Z,1425
2016-07-16T09:26:55.575Z,1480
2016-07-16T09:27:56.258Z,1585
2016-07-16T09:28:55.556Z,1680
2016-07-16T09:29:55.547Z,1580
2016-07-16T09:30:55.531Z,1525
2016-07-16T09:31:55.519Z,1510
2016-07-16T09:32:55.518Z,1405
2016-07-16T09:33:55.493Z,1410
2016-07-16T09:34:55.492Z,1435
2016-07-16T09:35:55.484Z,1475
2016-07-16T09:36:55.460Z,1485
2016-07-16T09:37:55.452Z,1430
2016-07-16T09:38:55.437Z,1525
2016-07-16T09:39:55.425Z,1640
2016-07-16T09:40:55.428Z,1600
2016-07-16T09:41:55.420Z,1500
2016-07-16T09:42:55.393Z,1545
2016-07-16T09:43:55.384Z,1440
2016-07-16T09:44:55.371Z,1460
2016-07-16T09:45:56.047Z,1495
2016-07-16T09:46:55.343Z,1510
2016-07-16T09:47:55.341Z,1560
2016-07-16T09:48:55.323Z,1510
2016-07-16T09:49:55.309Z,1465
2016-07-16T09:50:55.300Z,1315
2016-07-16T09:51:55.286Z,1355
2016-07-16T09:52:55.281Z,1400
2016-07-16T09:53:55.273Z,1420
2016-07-16T09:54:55.248Z,1465
2016-07-16T09:55:55.243Z,1480
2016-07-16T09:56:55.228Z,1445
2016-07-16T09:57:55.215Z,1405
2016-07-16T09:58:55.211Z,1315
2016-07-16T09:59:55.199Z,1265
2016-07-16T10:00:55.179Z,1235
2016-07-16T10:01:55.173Z,1215
2016-07-16T10:02:55.164Z,1215
2016-07-16T10:03:55.143Z,1205
2016-07-16T10:04:55.139Z,1240
2016-07-16T10:05:55.123Z,1260
2016-07-16T10:06:55.109Z,1270
2016-07-16T10:07:55.106Z,1235
2016-07-16T10:08:55.093Z,1185
2016-07-16T10:09:55.074Z,1160
2016-07-16T10:10:55.068Z,1155
2016-07-16T10:11:55.051Z,1185
2016-07-16T10:12:55.038Z,1195
2016-07-16T10:13:55.027Z,1195
2016-07-16T10:14:55.008Z,1190
2016-07-16T10:15:55.006Z,1120
2016-07-16T10:16:55.001Z,1065
2016-07-16T10:17:54.975Z,1000
2016-07-16T10:18:54.968Z,975
2016-07-16T10:19:54.953Z,1060
2016-07-16T10:20:54.949Z,1110
2016-07-16T10:21:54.928Z,1090
2016-07-16T10:22:54.912Z,1060
2016-07-16T10:23:54.905Z,1005
2016-07-16T10:24:55.581Z,1000
2016-07-16T10:25:54.875Z,1050
2016-07-16T10:26:54.866Z,1115
2016-07-16T10:27:54.858Z,1140
2016-07-16T10:28:54.837Z,1155
2016-07-16T10:29:54.830Z,1200
2016-07-16T10:30:54.816Z,1230
2016-07-16T10:31:54.799Z,1180
2016-07-16T10:32:54.787Z,1140
2016-07-16T10:33:54.773Z,1055
2016-07-16T10:34:54.775Z,1000
2016-07-16T10:35:54.747Z,955
2016-07-16T10:36:55.430Z,920
2016-07-16T10:37:54.723Z,930
2016-07-16T10:38:54.707Z,980
2016-07-16T10:39:54.697Z,1025
2016-07-16T10:40:54.683Z,1010
2016-07-16T10:41:54.674Z,970
2016-07-16T10:42:54.661Z,935
2016-07-16T10:43:54.645Z,905
2016-07-16T10:44:54.636Z,930
2016-07-16T10:45:54.621Z,1000
2016-07-16T10:46:55.301Z,1040
2016-07-16T10:47:54.598Z,1050
2016-07-16T10:48:54.580Z,1070
2016-07-16T10:49:54.574Z,1065
2016-07-16T10:50:54.554Z,1045
2016-07-16T10:51:54.541Z,1045
2016-07-16T10:52:54.529Z,1045
2016-07-16T10:53:54.515Z,1045
2016-07-16T10:54:54.498Z,1065
2016-07-16T10:55:54.494Z,1110
2016-07-16T10:56:54.481Z,1140
2016-07-16T10:57:54.458Z,1135
2016-07-16T10:58:54.448Z,1115
2016-07-16T10:59:54.440Z,1100
2016-07-16T11:00:54.421Z,1100
2016-07-16T11:01:54.408Z,1095
2016-07-16T11:02:54.398Z,1110
2016-07-16T11:03:54.381Z,1130
2016-07-16T11:04:54.380Z,1100
2016-07-16T11:05:54.358Z,1085
2016-07-16T11:06:54.344Z,1100
2016-07-16T11:07:54.327Z,1120
2016-07-16T11:08:54.321Z,1140
2016-07-16T11:09:54.306Z,1115
2016-07-16T11:10:54.288Z,1070
2016-07-16T11:11:54.281Z,1080
2016-07-16T11:12:54.270Z,1115
2016-07-16T11:13:54.251Z,1160
2016-07-16T11:14:54.244Z,1195
2016-07-16T11:15:54.232Z,1240
2016-07-16T11:16:54.218Z,1290
2016-07-16T11:17:54.201Z,1310
2016-07-16T11:18:54.195Z,1330
2016-07-16T11:19:54.872Z,1415
2016-07-16T11:20:54.163Z,1465
2016-07-16T11:21:54.156Z,1515
2016-07-16T11:22:54.144Z,1590
2016-07-16T11:23:54.131Z,1695
2016-07-16T11:24:54.113Z,1740
2016-07-16T11:25:54.107Z,1610
2016-07-16T11:26:54.095Z,1560
2016-07-16T11:27:54.078Z,1535
2016-07-16T11:28:54.071Z,1465
2016-07-16T11:29:54.057Z,1410
2016-07-16T11:30:54.043Z,1355
2016-07-16T11:31:54.042Z,1275
2016-07-16T11:32:54.030Z,1195
2016-07-16T11:33:54.009Z,1130
2016-07-16T11:34:53.999Z,1140
2016-07-16T11:35:54.804Z,1300
2016-07-16T11:36:53.978Z,1475
2016-07-16T11:37:53.965Z,1600
2016-07-16T11:38:53.962Z,1650
2016-07-16T11:39:53.944Z,1580
2016-07-16T11:40:53.930Z,1505
2016-07-16T11:41:53.919Z,1465
2016-07-16T11:42:53.910Z,1470
2016-07-16T11:43:53.902Z,1450
2016-07-16T11:44:53.887Z,1300
2016-07-16T11:45:53.875Z,1225
2016-07-16T11:46:53.871Z,1255
2016-07-16T11:47:53.852Z,1340
2016-07-16T11:48:53.842Z,1440
2016-07-16T11:49:53.842Z,1420
2016-07-16T11:50:53.816Z,1480
2016-07-16T11:51:53.806Z,1505
2016-07-16T11:52:53.800Z,1480
2016-07-16T11:53:54.479Z,1530
2016-07-16T11:54:53.768Z,1610
2016-07-16T11:55:53.762Z,1755
2016-07-16T11:56:53.759Z,1825
2016-07-16T11:57:53.734Z,1800
2016-07-16T11:58:53.729Z,1665
2016-07-16T11:59:53.717Z,1600
2016-07-16T12:00:53.711Z,1535
2016-07-16T12:01:53.693Z,1470
2016-07-16T12:02:53.680Z,1340
2016-07-16T12:03:53.674Z,1285
2016-07-16T12:04:53.662Z,1235
2016-07-16T12:05:54.339Z,1185
2016-07-16T12:06:53.652Z,1165
2016-07-16T12:07:53.640Z,1140
2016-07-16T12:08:53.613Z,1115
2016-07-16T12:09:53.608Z,1075
2016-07-16T12:10:53.591Z,1045
2016-07-16T12:11:53.579Z,1000
2016-07-16T12:12:53.577Z,960
2016-07-16T12:13:53.562Z,955
2016-07-16T12:14:53.554Z,985
2016-07-16T12:15:53.540Z,1005
2016-07-16T12:16:53.528Z,1000
2016-07-16T12:17:53.530Z,1020
2016-07-16T12:18:53.507Z,1065
2016-07-16T12:19:53.492Z,1135
2016-07-16T12:20:53.481Z,1240
2016-07-16T12:21:53.470Z,1255
2016-07-16T12:22:53.456Z,1215
2016-07-16T12:23:53.453Z,1330
2016-07-16T12:24:53.431Z,1445
2016-07-16T12:25:53.417Z,1730
2016-07-16T12:26:53.408Z,2340
2016-07-16T12:27:53.399Z,2665
2016-07-16T12:28:54.084Z,2625
2016-07-16T12:29:53.372Z,2215
2016-07-16T12:30:53.360Z,2215
2016-07-16T12:31:53.347Z,2010
2016-07-16T12:32:53.342Z,2180
2016-07-16T12:33:53.330Z,2955
2016-07-16T12:34:53.315Z,1850
2016-07-16T12:35:54.006Z,1775
2016-07-16T12:36:53.297Z,1595
2016-07-16T12:37:53.979Z,1465
2016-07-16T12:38:53.278Z,1385
2016-07-16T12:39:53.959Z,1320
2016-07-16T12:40:53.279Z,1325
2016-07-16T12:41:53.247Z,1355
2016-07-16T12:42:53.343Z,1425
2016-07-16T12:43:53.229Z,1435
2016-07-16T12:44:53.224Z,1375
2016-07-16T12:45:53.207Z,1340
2016-07-16T12:46:53.197Z,1345
2016-07-16T12:47:53.184Z,1445
2016-07-16T12:48:53.177Z,1595
2016-07-16T12:49:53.166Z,1700
2016-07-16T12:50:53.157Z,1635
2016-07-16T12:51:53.142Z,1630
2016-07-16T12:52:53.138Z,1620
2016-07-16T12:53:53.123Z,1570
2016-07-16T12:54:53.120Z,1510
2016-07-16T12:55:53.107Z,1455
2016-07-16T12:56:53.093Z,1410
2016-07-16T12:57:53.093Z,1370
2016-07-16T12:58:53.080Z,1370
2016-07-16T12:59:53.063Z,1405
2016-07-16T13:00:53.048Z,1435
2016-07-16T13:01:53.043Z,1495
2016-07-16T13:02:53.037Z,1515
2016-07-16T13:03:53.023Z,1545
2016-07-16T13:04:53.011Z,1505
2016-07-16T13:05:53.003Z,1470
2016-07-16T13:06:52.996Z,1495
2016-07-16T13:07:52.978Z,1595
2016-07-16T13:08:52.970Z,1830
2016-07-16T13:09:52.965Z,2385
2016-07-16T13:10:52.948Z,2000
2016-07-16T13:11:52.938Z,1840
2016-07-16T13:12:52.923Z,1830
2016-07-16T13:13:52.920Z,1620
2016-07-16T13:14:52.904Z,1510
2016-07-16T13:15:52.900Z,1475
2016-07-16T13:16:52.885Z,1500
2016-07-16T13:17:52.884Z,1570
2016-07-16T13:18:52.866Z,1380
2016-07-16T13:19:52.857Z,1345
2016-07-16T13:20:52.859Z,1355
2016-07-16T13:21:52.843Z,1295
2016-07-16T13:22:52.837Z,1215
2016-07-16T13:23:52.823Z,1145
2016-07-16T13:24:52.811Z,1080
2016-07-16T13:25:52.801Z,1015
2016-07-16T13:26:52.789Z,935
2016-07-16T13:27:52.780Z,920
2016-07-16T13:28:52.770Z,970
2016-07-16T13:29:52.759Z,1025
2016-07-16T13:30:52.748Z,1130
2016-07-16T13:31:52.739Z,1230
2016-07-16T13:32:52.726Z,1255
2016-07-16T13:33:52.711Z,1215
2016-07-16T13:34:52.701Z,1225
2016-07-16T13:35:52.692Z,1255
2016-07-16T13:36:52.675Z,1325
2016-07-16T13:37:52.667Z,1365
2016-07-16T13:38:52.654Z,1335
2016-07-16T13:39:52.647Z,1145
2016-07-16T13:40:52.636Z,1050
2016-07-16T13:41:52.622Z,1065
2016-07-16T13:42:52.613Z,1125
2016-07-16T13:43:52.600Z,1145
2016-07-16T13:44:52.591Z,1150
2016-07-16T13:45:52.580Z,1150
2016-07-16T13:46:52.570Z,1175
2016-07-16T13:47:52.654Z,1190
2016-07-16T13:48:52.547Z,1075
2016-07-16T13:49:52.539Z,995
2016-07-16T13:50:52.522Z,1025